Time;durP1;ratioP1;P1;durP2;ratioP2;P2;SDS_P1;SDS_P2;PMS_P1;PMS_P2;Temp;Humidity;BMP_temperature;BMP_pressure;BME280_temperature;BME280_humidity;BME280_pressure;Samples;Min_cycle;Max_cycle;Signal;HPM_P1;HPM_P2
2024/01/18 00:00:36;;;;;;;0.63;0.15;;;-0.90;99.90;;;;;;5113594;28;20044;-86
2024/01/18 00:03:02;;;;;;;3.75;0.30;;;-1.50;99.90;;;;;;5114233;27;20043;-85
2024/01/18 00:05:27;;;;;;;2.15;0.52;;;-1.30;99.90;;;;;;5095585;28;20127;-86
2024/01/18 00:07:53;;;;;;;2.72;0.25;;;-0.20;99.90;;;;;;5114165;28;20142;-86
2024/01/18 00:10:26;;;;;;;1.52;0.30;;;-0.20;99.90;;;;;;5112793;28;20063;-85
2024/01/18 00:12:52;;;;;;;1.23;0.38;;;-1.50;99.90;;;;;;5095456;28;20040;-86
2024/01/18 00:15:18;;;;;;;7.18;0.70;;;-1.70;99.90;;;;;;5095844;28;20521;-86
2024/01/18 00:17:43;;;;;;;2.90;0.65;;;0.20;99.90;;;;;;5092543;28;20048;-85
2024/01/18 00:20:10;;;;;;;5.18;0.70;;;-0.90;99.90;;;;;;5109294;28;20396;-86
2024/01/18 00:22:35;;;;;;;1.08;0.50;;;-1.60;99.90;;;;;;5092045;28;20050;-86
2024/01/18 00:25:01;;;;;;;2.45;0.40;;;-1.80;99.90;;;;;;5075061;28;20040;-86
2024/01/18 00:27:27;;;;;;;3.67;0.50;;;-1.40;99.90;;;;;;5097180;28;20446;-85
2024/01/18 00:29:52;;;;;;;1.20;0.40;;;-1.70;99.90;;;;;;5112521;28;20057;-85
2024/01/18 00:32:18;;;;;;;2.35;0.40;;;-1.60;99.90;;;;;;5112562;28;20056;-86
2024/01/18 00:34:44;;;;;;;1.50;0.63;;;-1.80;99.90;;;;;;5094783;28;20063;-85
2024/01/18 00:37:09;;;;;;;4.72;0.45;;;-0.30;99.90;;;;;;5112507;28;20051;-86
2024/01/18 00:39:42;;;;;;;2.30;0.30;;;-1.00;99.90;;;;;;5095620;28;20043;-85
2024/01/18 00:42:09;;;;;;;3.55;0.70;;;-1.70;99.90;;;;;;5112093;28;20104;-85
2024/01/18 00:44:35;;;;;;;6.15;0.30;;;-1.00;99.90;;;;;;5112283;28;20043;-85
2024/01/18 00:47:00;;;;;;;1.48;0.30;;;-0.90;99.90;;;;;;5113615;28;20184;-86
2024/01/18 00:49:26;;;;;;;1.20;0.22;;;-0.60;99.90;;;;;;5094724;28;20392;-86
2024/01/18 00:51:52;;;;;;;4.93;0.30;;;-1.90;99.90;;;;;;5112256;28;20148;-86
2024/01/18 00:54:17;;;;;;;0.88;0.30;;;-0.30;99.90;;;;;;5113469;28;20388;-86
2024/01/18 00:56:43;;;;;;;2.15;0.30;;;-2.00;99.90;;;;;;5094475;28;20138;-86
2024/01/18 00:59:09;;;;;;;3.60;1.05;;;-2.00;99.90;;;;;;5112008;28;20130;-87
2024/01/18 01:01:34;;;;;;;6.55;1.17;;;-0.70;99.90;;;;;;5112993;28;20050;-85
2024/01/18 01:04:02;;;;;;;1.25;0.30;;;0.20;99.90;;;;;;5112101;28;20042;-85
2024/01/18 01:06:28;;;;;;;2.65;0.47;;;-1.00;99.90;;;;;;5111930;28;20046;-85
2024/01/18 01:08:54;;;;;;;2.58;0.30;;;-2.00;99.90;;;;;;5112101;28;20048;-85
2024/01/18 01:11:19;;;;;;;0.63;0.20;;;-2.00;99.90;;;;;;5094703;28;20046;-85
2024/01/18 01:13:45;;;;;;;1.40;0.38;;;-2.10;99.90;;;;;;5112176;28;20055;-86
2024/01/18 01:16:11;;;;;;;3.53;0.30;;;-1.60;99.90;;;;;;5095113;28;20044;-85
2024/01/18 01:18:37;;;;;;;2.75;0.30;;;-2.30;99.90;;;;;;5095001;28;20052;-85
2024/01/18 01:21:04;;;;;;;1.65;0.30;;;-2.10;99.90;;;;;;5112102;28;20470;-86
2024/01/18 01:23:30;;;;;;;1.60;0.30;;;-2.10;99.90;;;;;;5113412;28;20047;-86
2024/01/18 01:25:56;;;;;;;0.47;0.30;;;-2.20;99.90;;;;;;5113030;28;20035;-85
2024/01/18 01:28:22;;;;;;;0.50;0.30;;;-2.20;99.90;;;;;;5112157;28;20043;-86
2024/01/18 01:30:48;;;;;;;7.18;0.65;;;-1.40;99.90;;;;;;5112104;28;20123;-85
2024/01/18 01:33:14;;;;;;;3.15;0.50;;;-1.70;99.90;;;;;;5094758;28;20515;-86
2024/01/18 01:35:40;;;;;;;3.58;0.85;;;-2.10;99.90;;;;;;5113145;28;20444;-86
2024/01/18 01:38:06;;;;;;;1.35;0.30;;;0.20;99.90;;;;;;5114954;28;20036;-86
2024/01/18 01:40:32;;;;;;;3.60;0.60;;;-0.90;99.90;;;;;;5113270;28;20392;-85
2024/01/18 01:42:57;;;;;;;3.88;0.77;;;-2.00;99.90;;;;;;5095934;28;20079;-85
2024/01/18 01:45:23;;;;;;;5.32;0.95;;;-0.50;99.90;;;;;;5115288;28;20039;-86
2024/01/18 01:47:50;;;;;;;7.50;0.60;;;-0.50;99.90;;;;;;5115405;28;20090;-86
2024/01/18 01:50:16;;;;;;;6.03;0.60;;;-1.80;99.90;;;;;;5116745;28;20399;-85
2024/01/18 01:52:43;;;;;;;5.05;0.40;;;-1.70;99.90;;;;;;5115373;28;20043;-86
2024/01/18 01:55:10;;;;;;;1.58;0.43;;;-1.80;99.90;;;;;;5116680;28;20043;-86
2024/01/18 01:57:37;;;;;;;3.70;0.60;;;-1.70;99.90;;;;;;5115105;28;20040;-86
2024/01/18 02:00:03;;;;;;;5.32;0.40;;;-0.80;99.90;;;;;;5097830;28;20568;-86
2024/01/18 02:02:30;;;;;;;6.63;0.40;;;-1.60;99.90;;;;;;5115173;28;20134;-85
2024/01/18 02:04:56;;;;;;;6.10;0.50;;;-1.90;99.90;;;;;;5098431;28;20388;-85
2024/01/18 02:07:25;;;;;;;2.47;0.30;;;-0.20;99.90;;;;;;5116832;28;20039;-87
2024/01/18 02:09:51;;;;;;;5.57;0.40;;;-1.80;99.90;;;;;;5098325;28;20044;-86
2024/01/18 02:12:18;;;;;;;2.83;0.40;;;-2.20;99.90;;;;;;5098185;28;20043;-86
2024/01/18 02:14:45;;;;;;;4.15;0.30;;;-2.00;99.90;;;;;;5097900;28;20082;-85
2024/01/18 02:17:11;;;;;;;2.70;0.40;;;-1.70;99.90;;;;;;5114775;28;20050;-86
2024/01/18 02:19:36;;;;;;;2.20;0.50;;;-1.90;99.90;;;;;;5115460;28;20071;-85
2024/01/18 02:22:03;;;;;;;7.03;0.50;;;-1.00;99.90;;;;;;5116097;28;20141;-85
2024/01/18 02:24:40;;;;;;;5.50;0.55;;;-1.80;99.90;;;;;;5114710;28;20036;-85
2024/01/18 02:27:06;;;;;;;1.15;0.40;;;-1.90;99.90;;;;;;5114657;28;20126;-86
2024/01/18 02:29:32;;;;;;;2.85;0.50;;;-2.00;99.90;;;;;;5115876;28;20110;-85
2024/01/18 02:31:58;;;;;;;1.63;0.50;;;-2.00;99.90;;;;;;5115926;28;20117;-86
2024/01/18 02:34:23;;;;;;;2.35;0.40;;;-1.50;99.90;;;;;;5114504;28;20078;-86
2024/01/18 02:36:49;;;;;;;3.65;0.60;;;-2.10;99.90;;;;;;5114928;28;20449;-86
2024/01/18 02:39:15;;;;;;;3.22;1.10;;;-1.30;99.90;;;;;;5114600;28;20071;-87
2024/01/18 02:41:41;;;;;;;6.05;0.80;;;-2.10;99.90;;;;;;5114610;28;20050;-87
2024/01/18 02:44:07;;;;;;;5.20;0.57;;;-1.70;99.90;;;;;;5113750;28;20499;-88
2024/01/18 02:46:33;;;;;;;1.60;0.52;;;-2.30;99.90;;;;;;5114805;28;20422;-87
2024/01/18 02:48:59;;;;;;;7.75;0.60;;;-0.60;99.90;;;;;;5115565;28;20104;-86
2024/01/18 02:51:25;;;;;;;7.13;0.50;;;-1.00;99.90;;;;;;5115602;28;20074;-87
2024/01/18 02:53:51;;;;;;;2.30;0.50;;;-1.70;99.90;;;;;;5113697;28;20032;-87
2024/01/18 02:56:17;;;;;;;4.10;0.60;;;-0.40;99.90;;;;;;5096534;28;20134;-87
2024/01/18 02:58:42;;;;;;;1.50;0.70;;;-0.50;99.90;;;;;;5097121;28;20044;-87
2024/01/18 03:01:11;;;;;;;2.95;0.65;;;-1.10;99.90;;;;;;5114228;28;20484;-87
2024/01/18 03:03:37;;;;;;;1.83;0.50;;;-2.10;99.90;;;;;;5115254;28;20039;-88
2024/01/18 03:06:03;;;;;;;5.22;0.65;;;0.60;99.90;;;;;;5097036;28;20061;-88
2024/01/18 03:08:28;;;;;;;3.92;0.63;;;-2.20;99.90;;;;;;5114210;28;20063;-88
2024/01/18 03:10:54;;;;;;;2.95;0.60;;;-1.20;99.90;;;;;;5096954;28;20055;-88
2024/01/18 03:13:20;;;;;;;6.75;0.63;;;-2.20;99.90;;;;;;5114126;28;20134;-88
2024/01/18 03:15:45;;;;;;;3.67;0.60;;;-0.10;99.90;;;;;;5115605;28;20069;-88
2024/01/18 03:18:11;;;;;;;3.28;0.80;;;-1.00;99.90;;;;;;5114784;28;20078;-88
2024/01/18 03:20:37;;;;;;;5.32;0.95;;;-2.30;99.90;;;;;;5114039;28;20088;-88
2024/01/18 03:23:03;;;;;;;2.55;0.50;;;-2.40;99.90;;;;;;5114009;28;20051;-87
2024/01/18 03:25:29;;;;;;;5.13;0.70;;;-2.30;99.90;;;;;;5113356;28;20044;-86
2024/01/18 03:27:55;;;;;;;0.98;0.50;;;-2.50;99.90;;;;;;5113267;28;20488;-87
2024/01/18 03:30:21;;;;;;;4.65;0.60;;;-1.70;99.90;;;;;;5096251;28;20418;-86
2024/01/18 03:32:46;;;;;;;1.90;0.50;;;-1.40;99.90;;;;;;5130828;27;20043;-87
2024/01/18 03:35:12;;;;;;;4.78;0.60;;;-0.40;99.90;;;;;;5113662;28;20036;-86
2024/01/18 03:37:38;;;;;;;4.93;0.55;;;-1.70;99.90;;;;;;5101434;28;20472;-88
2024/01/18 03:40:08;;;;;;;8.20;0.80;;;-1.00;99.90;;;;;;5113230;28;20039;-86
2024/01/18 03:42:34;;;;;;;2.22;0.50;;;-2.20;99.90;;;;;;5096287;28;20043;-86
2024/01/18 03:45:01;;;;;;;2.50;0.50;;;-0.60;99.90;;;;;;5113003;28;20065;-85
2024/01/18 03:47:26;;;;;;;2.50;0.40;;;-2.20;99.90;;;;;;5113300;28;20074;-87
2024/01/18 03:49:52;;;;;;;1.60;0.30;;;-2.30;99.90;;;;;;5113026;28;20123;-86
2024/01/18 03:52:18;;;;;;;1.98;0.40;;;-2.60;99.90;;;;;;5112872;28;20042;-86
2024/01/18 03:54:43;;;;;;;3.65;0.43;;;-2.60;99.90;;;;;;5112834;28;20510;-86
2024/01/18 03:57:09;;;;;;;3.25;0.35;;;-0.30;99.90;;;;;;5114041;28;20373;-86
2024/01/18 03:59:35;;;;;;;9.38;0.63;;;-2.20;99.90;;;;;;5112903;28;20504;-87
2024/01/18 04:02:01;;;;;;;3.28;0.30;;;-2.10;99.90;;;;;;5112570;28;20118;-87
2024/01/18 04:04:26;;;;;;;1.75;0.40;;;-1.10;99.90;;;;;;5095294;28;20123;-86
2024/01/18 04:06:52;;;;;;;3.40;0.35;;;-1.30;99.90;;;;;;5112274;28;20071;-86
2024/01/18 04:09:18;;;;;;;1.50;0.40;;;-2.00;99.90;;;;;;5113969;28;20047;-86
2024/01/18 04:11:44;;;;;;;2.65;0.43;;;-1.30;99.90;;;;;;5112840;28;20078;-87
2024/01/18 04:14:10;;;;;;;2.20;0.30;;;0.00;99.90;;;;;;5129890;27;20116;-87
2024/01/18 04:16:37;;;;;;;1.15;0.30;;;-1.20;99.90;;;;;;5112599;28;20492;-86
2024/01/18 04:19:04;;;;;;;6.15;0.57;;;-1.00;99.90;;;;;;5112424;28;20038;-87
2024/01/18 04:21:30;;;;;;;6.13;0.50;;;-2.20;99.90;;;;;;5113798;28;20054;-86
2024/01/18 04:23:56;;;;;;;1.20;0.40;;;-1.80;99.90;;;;;;5112418;28;20036;-86
2024/01/18 04:26:23;;;;;;;3.25;0.73;;;0.70;99.90;;;;;;5112338;28;20146;-87
2024/01/18 04:28:49;;;;;;;3.60;0.40;;;0.70;99.90;;;;;;5112796;28;20407;-86
2024/01/18 04:31:15;;;;;;;1.73;0.95;;;-1.00;99.90;;;;;;5113399;28;20048;-87
2024/01/18 04:33:40;;;;;;;5.20;0.30;;;-0.90;99.90;;;;;;5095350;28;20039;-86
2024/01/18 04:36:07;;;;;;;1.00;0.40;;;-2.10;99.90;;;;;;5113418;28;20040;-86
2024/01/18 04:38:32;;;;;;;3.20;0.47;;;-2.00;99.90;;;;;;5112710;28;20055;-86
2024/01/18 04:40:58;;;;;;;3.70;0.28;;;-0.90;99.90;;;;;;5112591;28;20111;-86
2024/01/18 04:43:24;;;;;;;1.13;0.30;;;-1.50;99.90;;;;;;5112031;28;20138;-87
2024/01/18 04:45:50;;;;;;;3.10;0.40;;;-2.20;99.90;;;;;;5112136;28;20120;-86
2024/01/18 04:48:16;;;;;;;0.47;0.20;;;-1.50;99.90;;;;;;5095394;28;20050;-86
2024/01/18 04:50:41;;;;;;;2.05;0.30;;;-1.40;99.90;;;;;;5113447;28;20484;-87
2024/01/18 04:53:07;;;;;;;1.75;0.30;;;-2.20;99.90;;;;;;5112318;28;20047;-86
2024/01/18 04:55:33;;;;;;;4.30;0.30;;;-2.10;99.90;;;;;;5099374;28;20518;-86
2024/01/18 04:57:59;;;;;;;0.88;0.30;;;-0.80;99.90;;;;;;5126027;28;20609;-87
2024/01/18 05:04:06;;;;;;;0.80;0.30;;;-1.40;99.90;;;;;;5114063;28;20062;-86
2024/01/18 05:06:31;;;;;;;0.93;0.30;;;-1.30;99.90;;;;;;5112150;28;20373;-87
2024/01/18 05:08:57;;;;;;;4.95;0.57;;;-2.30;99.90;;;;;;5094876;28;20140;-86
2024/01/18 05:11:25;;;;;;;2.72;0.20;;;-2.40;99.90;;;;;;5112520;28;20035;-86
2024/01/18 05:13:51;;;;;;;2.00;0.28;;;-1.10;99.90;;;;;;5112306;28;20047;-87
2024/01/18 05:16:18;;;;;;;4.47;0.30;;;0.10;99.90;;;;;;5111937;28;20074;-86
2024/01/18 05:18:44;;;;;;;0.98;0.30;;;-1.70;99.90;;;;;;5115188;28;20117;-86
2024/01/18 05:21:09;;;;;;;4.90;0.30;;;-1.40;99.90;;;;;;5115092;28;20403;-87
2024/01/18 05:23:36;;;;;;;2.20;0.20;;;-1.70;99.90;;;;;;5115905;28;20119;-87
2024/01/18 05:26:03;;;;;;;3.03;0.40;;;-1.90;99.90;;;;;;5115848;28;20050;-87
2024/01/18 05:28:29;;;;;;;3.40;0.40;;;-1.60;99.90;;;;;;5098929;28;20044;-87
2024/01/18 05:30:56;;;;;;;3.70;0.20;;;-1.30;99.90;;;;;;5098958;28;20487;-87
2024/01/18 05:33:22;;;;;;;3.85;0.35;;;-0.70;99.90;;;;;;5117176;28;20503;-87
2024/01/18 05:35:49;;;;;;;2.28;0.30;;;-0.90;99.90;;;;;;5099105;28;20040;-87
2024/01/18 05:38:15;;;;;;;1.77;0.35;;;-1.50;99.90;;;;;;5117177;28;20100;-87
2024/01/18 05:40:40;;;;;;;2.10;0.32;;;-1.70;99.90;;;;;;5115845;28;20039;-87
2024/01/18 05:43:06;;;;;;;1.65;0.30;;;-2.20;99.90;;;;;;5098802;28;20387;-87
2024/01/18 05:45:32;;;;;;;4.50;0.50;;;-1.60;99.90;;;;;;5117151;28;20035;-87
2024/01/18 05:47:57;;;;;;;1.65;0.45;;;-2.40;99.90;;;;;;5115384;28;20039;-87
2024/01/18 05:50:24;;;;;;;4.03;0.40;;;-1.50;99.90;;;;;;5116146;28;20149;-87
2024/01/18 05:52:50;;;;;;;2.60;0.50;;;-1.80;99.90;;;;;;5115609;28;20044;-87
2024/01/18 05:55:15;;;;;;;6.13;0.40;;;-1.60;99.90;;;;;;5115480;28;20063;-87
2024/01/18 05:57:41;;;;;;;1.20;0.30;;;-1.20;99.90;;;;;;5114273;28;20039;-88
2024/01/18 06:00:07;;;;;;;3.50;0.40;;;-1.80;99.90;;;;;;5115127;28;20043;-87
2024/01/18 06:02:33;;;;;;;4.05;0.50;;;-1.50;99.90;;;;;;5115123;28;20124;-87
2024/01/18 06:05:00;;;;;;;2.33;0.35;;;-1.00;99.90;;;;;;5132386;27;20048;-86
2024/01/18 06:07:26;;;;;;;2.58;0.47;;;-1.90;99.90;;;;;;5115393;28;20043;-86
2024/01/18 06:09:52;;;;;;;0.70;0.30;;;-1.70;99.90;;;;;;5114917;28;20051;-87
2024/01/18 06:12:18;;;;;;;3.30;0.43;;;-1.70;99.90;;;;;;5115044;28;20040;-87
2024/01/18 06:14:43;;;;;;;1.25;0.30;;;-1.20;99.90;;;;;;5114842;28;20089;-87
2024/01/18 06:17:09;;;;;;;5.07;0.35;;;-1.80;99.90;;;;;;5114381;28;20518;-87
2024/01/18 06:19:35;;;;;;;5.63;0.80;;;-1.70;99.90;;;;;;5115066;28;20040;-87
2024/01/18 06:22:03;;;;;;;4.18;1.90;;;-1.60;99.90;;;;;;5116028;28;20047;-87
2024/01/18 06:24:29;;;;;;;2.50;0.80;;;-1.30;99.90;;;;;;5115911;28;20035;-87
2024/01/18 06:26:55;;;;;;;2.47;0.45;;;-1.70;99.90;;;;;;5114946;28;20042;-87
2024/01/18 06:29:26;;;;;;;2.20;0.40;;;-1.90;99.90;;;;;;5115482;28;20084;-86
2024/01/18 06:31:52;;;;;;;0.40;0.38;;;-1.90;99.90;;;;;;5114680;28;20442;-86
2024/01/18 06:34:18;;;;;;;3.80;0.43;;;-1.90;99.90;;;;;;5114863;28;20053;-87
2024/01/18 06:36:44;;;;;;;4.28;0.57;;;-0.20;99.90;;;;;;5115182;28;20377;-87
2024/01/18 06:39:10;;;;;;;4.40;0.60;;;-1.50;99.90;;;;;;5115902;28;20040;-87
2024/01/18 06:41:36;;;;;;;2.15;0.65;;;-1.90;99.90;;;;;;5097429;28;20561;-87
2024/01/18 06:44:02;;;;;;;6.65;1.10;;;-0.40;99.90;;;;;;5115351;28;20039;-86
2024/01/18 06:46:29;;;;;;;4.82;0.70;;;-1.50;99.90;;;;;;5115724;27;20039;-87
2024/01/18 06:48:57;;;;;;;4.18;0.80;;;-1.60;99.90;;;;;;5114833;28;20031;-87
2024/01/18 06:51:23;;;;;;;5.05;1.20;;;-1.40;99.90;;;;;;5113790;28;20103;-86
2024/01/18 06:53:50;;;;;;;5.03;1.13;;;-0.60;99.90;;;;;;5115079;27;20036;-87
2024/01/18 06:56:16;;;;;;;3.17;0.80;;;-2.10;99.90;;;;;;5115646;28;20062;-86
2024/01/18 06:58:43;;;;;;;2.30;0.80;;;-0.90;99.90;;;;;;5113618;28;20036;-87
2024/01/18 07:01:10;;;;;;;3.47;1.08;;;-1.60;99.90;;;;;;5113331;28;20054;-86
2024/01/18 07:03:36;;;;;;;4.32;0.80;;;0.20;99.90;;;;;;5113730;28;20483;-86
2024/01/18 07:06:05;;;;;;;3.85;0.57;;;-1.80;99.90;;;;;;5114083;28;20086;-87
2024/01/18 07:08:31;;;;;;;0.60;0.40;;;-1.50;99.90;;;;;;5115244;28;20106;-87
2024/01/18 07:10:57;;;;;;;6.55;0.52;;;0.20;99.90;;;;;;5115153;28;20064;-88
2024/01/18 07:13:26;;;;;;;5.13;0.60;;;-0.10;99.90;;;;;;5115257;28;20488;-86
2024/01/18 07:15:52;;;;;;;4.80;0.50;;;-1.30;99.90;;;;;;5115085;28;20043;-85
2024/01/18 07:18:18;;;;;;;2.80;0.80;;;0.20;99.90;;;;;;5113642;28;20056;-86
2024/01/18 07:20:44;;;;;;;3.88;0.70;;;-0.30;99.90;;;;;;5115097;28;20024;-87
2024/01/18 07:23:10;;;;;;;1.58;0.55;;;-1.20;99.90;;;;;;5114267;28;20043;-87
2024/01/18 07:25:35;;;;;;;2.15;0.65;;;-1.20;99.90;;;;;;5113450;28;20488;-87
2024/01/18 07:28:01;;;;;;;2.42;0.43;;;-1.20;99.90;;;;;;5114446;28;20038;-87
2024/01/18 07:30:27;;;;;;;2.10;0.50;;;-1.30;99.90;;;;;;5113299;28;20049;-87
2024/01/18 07:32:52;;;;;;;1.77;0.35;;;-1.30;99.90;;;;;;5114931;28;20039;-87
2024/01/18 07:35:18;;;;;;;5.85;0.50;;;-0.20;99.90;;;;;;5096697;28;20051;-86
2024/01/18 07:37:43;;;;;;;4.10;0.63;;;-1.30;99.90;;;;;;5113610;28;20040;-87
2024/01/18 07:40:09;;;;;;;4.25;0.73;;;0.10;99.90;;;;;;5095190;28;20043;-86
2024/01/18 07:42:35;;;;;;;1.10;0.40;;;-1.10;99.90;;;;;;5112707;28;20043;-87
2024/01/18 07:45:01;;;;;;;7.88;0.82;;;-1.20;99.90;;;;;;5113157;28;20044;-87
2024/01/18 07:47:26;;;;;;;6.18;0.45;;;-0.70;99.90;;;;;;5113780;28;20048;-86
2024/01/18 07:49:52;;;;;;;7.57;0.60;;;0.60;99.90;;;;;;5112668;28;20046;-87
2024/01/18 07:52:18;;;;;;;2.97;0.40;;;-0.60;99.90;;;;;;5113495;28;20135;-86
2024/01/18 07:54:44;;;;;;;2.22;0.38;;;-0.60;99.90;;;;;;5113291;28;20044;-88
2024/01/18 07:57:10;;;;;;;8.82;2.28;;;1.40;99.90;;;;;;5113984;28;20047;-87
2024/01/18 07:59:36;;;;;;;6.15;0.50;;;-1.00;99.90;;;;;;5113289;28;20396;-86
2024/01/18 08:02:02;;;;;;;3.67;0.93;;;-1.20;99.90;;;;;;5113181;28;20130;-86
2024/01/18 08:04:29;;;;;;;5.55;0.40;;;-1.10;99.90;;;;;;5113072;28;20134;-86
2024/01/18 08:06:55;;;;;;;0.73;0.30;;;-1.30;99.90;;;;;;5112815;28;20048;-86
2024/01/18 08:09:21;;;;;;;7.05;0.50;;;0.40;99.90;;;;;;5112708;28;20044;-86
2024/01/18 08:11:47;;;;;;;4.68;0.60;;;-0.60;99.90;;;;;;5113222;28;20058;-86
2024/01/18 08:14:13;;;;;;;0.47;0.30;;;-1.40;99.90;;;;;;5095673;28;20051;-87
2024/01/18 08:16:39;;;;;;;1.63;0.40;;;-0.50;99.90;;;;;;5113086;28;20047;-86
2024/01/18 08:19:05;;;;;;;3.92;0.40;;;-0.50;99.90;;;;;;5113928;28;20115;-86
2024/01/18 08:21:31;;;;;;;4.00;0.52;;;-1.40;99.90;;;;;;5112425;28;20050;-86
2024/01/18 08:23:56;;;;;;;2.85;0.60;;;-1.70;99.90;;;;;;5112366;28;20047;-87
2024/01/18 08:26:22;;;;;;;3.15;0.55;;;-1.20;99.90;;;;;;5112652;28;20043;-85
2024/01/18 08:28:48;;;;;;;5.65;0.50;;;-1.20;99.90;;;;;;5095578;28;20070;-86
2024/01/18 08:31:13;;;;;;;2.67;0.57;;;-1.70;99.90;;;;;;5113485;28;20042;-86
2024/01/18 08:33:40;;;;;;;4.82;0.52;;;-0.30;99.90;;;;;;5112152;28;20044;-87
2024/01/18 08:36:08;;;;;;;4.50;0.50;;;0.40;99.90;;;;;;5112709;28;20040;-87
2024/01/18 08:38:33;;;;;;;1.90;0.57;;;-1.00;99.90;;;;;;5112905;28;20062;-87
2024/01/18 08:40:59;;;;;;;2.47;0.60;;;0.50;99.90;;;;;;5096044;28;20051;-86
2024/01/18 08:43:27;;;;;;;3.45;0.60;;;-1.00;99.90;;;;;;5112585;28;20040;-87
2024/01/18 08:45:54;;;;;;;2.22;0.52;;;0.20;99.90;;;;;;5112976;28;20047;-87
2024/01/18 08:48:20;;;;;;;2.22;0.60;;;-1.00;99.90;;;;;;5111524;28;20039;-86
2024/01/18 08:50:46;;;;;;;2.15;0.50;;;1.00;99.90;;;;;;5115990;28;20540;-87
2024/01/18 08:53:12;;;;;;;3.40;0.40;;;-0.30;99.90;;;;;;5118404;28;20047;-87
2024/01/18 08:55:38;;;;;;;3.50;0.47;;;-1.00;99.90;;;;;;5118273;28;20039;-88
2024/01/18 08:58:04;;;;;;;3.83;0.57;;;-1.10;99.90;;;;;;5116620;28;20075;-86
2024/01/18 09:00:30;;;;;;;3.95;0.40;;;-1.00;99.90;;;;;;5117564;28;20047;-88
2024/01/18 09:02:56;;;;;;;4.78;1.13;;;-0.30;99.90;;;;;;5116702;28;20048;-87
2024/01/18 09:05:22;;;;;;;3.17;0.60;;;0.10;99.90;;;;;;5099941;28;20118;-86
2024/01/18 09:07:48;;;;;;;3.92;0.45;;;-0.40;99.90;;;;;;5116927;28;20453;-89
2024/01/18 09:10:14;;;;;;;1.65;0.32;;;0.20;99.90;;;;;;5118080;28;20077;-88
2024/01/18 09:12:40;;;;;;;1.08;0.40;;;;;;;;;;5116768;28;20408;-89
2024/01/18 09:15:06;;;;;;;3.55;0.60;;;-0.80;99.90;;;;;;5117829;27;20043;-87
2024/01/18 09:17:32;;;;;;;4.10;0.47;;;-0.80;99.90;;;;;;5116725;28;20073;-87
2024/01/18 09:19:57;;;;;;;4.57;0.40;;;-0.10;99.90;;;;;;5116649;28;20039;-87
2024/01/18 09:22:23;;;;;;;3.03;0.50;;;0.40;99.90;;;;;;5111033;27;20111;-90
2024/01/18 09:24:49;;;;;;;1.63;0.30;;;-0.80;99.90;;;;;;5116864;28;20077;-88
2024/01/18 09:27:15;;;;;;;0.90;0.40;;;0.80;99.90;;;;;;5116276;28;20071;-87
2024/01/18 09:29:41;;;;;;;4.20;0.30;;;-0.70;99.90;;;;;;5117873;27;20546;-86
2024/01/18 09:32:07;;;;;;;6.20;0.38;;;1.00;99.90;;;;;;5116477;28;20047;-86
2024/01/18 09:34:33;;;;;;;7.00;0.50;;;-0.40;99.90;;;;;;5115931;27;20080;-86
2024/01/18 09:36:59;;;;;;;1.70;0.40;;;-0.30;99.90;;;;;;5100070;28;20552;-86
2024/01/18 09:39:25;;;;;;;2.80;0.60;;;1.00;99.90;;;;;;5099535;27;20122;-86
2024/01/18 09:41:55;;;;;;;3.65;0.50;;;0.50;99.90;;;;;;5115499;28;20070;-84
2024/01/18 09:44:31;;;;;;;2.95;0.40;;;0.30;99.90;;;;;;5116542;28;20055;-86
2024/01/18 09:46:57;;;;;;;;;;;2.10;99.90;;;;;;5098727;28;20134;-87
2024/01/18 09:49:23;;;;;;;;;;;2.50;99.90;;;;;;5115892;28;19964;-86
2024/01/18 09:51:49;;;;;;;;;;;2.20;99.90;;;;;;5098913;28;20009;-86
2024/01/18 09:54:15;;;;;;;;;;;1.80;99.90;;;;;;5114343;28;19963;-86
2024/01/18 09:56:45;;;;;;;5.10;0.45;;;2.40;99.90;;;;;;5121262;27;19997;-84
2024/01/18 09:59:16;;;;;;;0.68;0.30;;;2.50;99.90;;;;;;5096258;28;20473;-84
2024/01/18 10:01:42;;;;;;;0.70;0.20;;;2.80;99.90;;;;;;5116251;28;20043;-84
2024/01/18 10:04:12;;;;;;;0.65;0.15;;;0.90;99.90;;;;;;5114684;28;20265;-85
2024/01/18 10:06:40;;;;;;;2.55;0.20;;;-0.20;99.90;;;;;;5116598;28;20067;-84
2024/01/18 10:09:11;;;;;;;0.25;0.10;;;2.10;99.90;;;;;;5114956;28;20051;-85
2024/01/18 10:11:40;;;;;;;0.20;0.10;;;0.80;99.90;;;;;;5115108;28;20448;-84
2024/01/18 10:14:07;;;;;;;3.13;0.30;;;1.10;99.90;;;;;;5114916;28;20051;-85
2024/01/18 10:16:36;;;;;;;2.97;0.20;;;0.30;99.90;;;;;;5114333;28;20035;-83
2024/01/18 10:19:07;;;;;;;0.88;0.20;;;0.70;99.90;;;;;;5114724;28;20047;-86
2024/01/18 10:21:34;;;;;;;1.55;0.20;;;1.20;99.90;;;;;;5114894;28;20040;-84
2024/01/18 10:24:02;;;;;;;0.45;0.30;;;0.60;99.90;;;;;;5114524;28;20046;-84
2024/01/18 10:26:31;;;;;;;5.43;0.32;;;0.60;99.90;;;;;;5113788;28;20062;-83
2024/01/18 10:28:57;;;;;;;2.00;0.40;;;1.60;99.90;;;;;;5115605;28;20114;-84
2024/01/18 10:31:24;;;;;;;3.13;0.60;;;0.60;99.90;;;;;;5115822;28;20136;-85
2024/01/18 10:33:50;;;;;;;5.03;1.00;;;1.60;99.90;;;;;;5097405;28;20035;-84
2024/01/18 10:36:17;;;;;;;3.65;0.60;;;0.90;99.90;;;;;;5115832;27;20100;-83
2024/01/18 10:38:43;;;;;;;2.92;0.50;;;1.60;99.90;;;;;;5116498;27;20036;-84
2024/01/18 10:41:09;;;;;;;2.58;0.43;;;2.70;99.90;;;;;;5097327;28;20107;-85
2024/01/18 10:43:36;;;;;;;1.65;0.50;;;1.90;99.90;;;;;;5114044;28;20044;-85
2024/01/18 10:46:02;;;;;;;1.27;0.40;;;1.90;99.90;;;;;;5115645;28;20126;-84
2024/01/18 10:48:37;;;;;;;2.00;0.40;;;1.70;99.90;;;;;;5114223;28;20051;-87
2024/01/18 10:51:05;;;;;;;2.45;0.20;;;1.80;99.90;;;;;;5113991;28;20036;-83
2024/01/18 10:53:34;;;;;;;1.05;0.20;;;1.60;99.90;;;;;;5097357;28;20040;-84
2024/01/18 10:56:03;;;;;;;3.13;0.50;;;2.70;99.90;;;;;;5097425;28;20046;-84
2024/01/18 10:58:30;;;;;;;2.38;0.40;;;1.10;99.90;;;;;;5114882;28;20047;-85
2024/01/18 11:00:57;;;;;;;2.28;0.25;;;1.80;99.90;;;;;;5113457;28;20078;-86
2024/01/18 11:03:23;;;;;;;5.03;0.90;;;3.00;99.90;;;;;;5113826;28;20044;-85
2024/01/18 11:05:49;;;;;;;8.40;0.40;;;1.80;99.90;;;;;;5114297;28;20048;-84
2024/01/18 11:08:17;;;;;;;2.00;0.40;;;1.60;99.90;;;;;;5115286;28;20085;-84
2024/01/18 11:10:44;;;;;;;1.98;0.28;;;2.20;99.90;;;;;;5113919;28;20052;-85
2024/01/18 11:13:11;;;;;;;4.32;0.40;;;2.30;99.90;;;;;;5115384;28;20499;-85
2024/01/18 11:15:41;;;;;;;5.70;0.68;;;1.50;99.90;;;;;;5114209;28;20039;-84
2024/01/18 11:18:11;;;;;;;9.25;0.43;;;1.50;99.90;;;;;;5114187;28;20399;-86
2024/01/18 11:20:59;;;;;;;0.85;0.38;;;1.50;99.90;;;;;;5114849;28;20403;-86
2024/01/18 11:23:43;;;;;;;5.30;0.30;;;1.60;99.90;;;;;;5113695;28;20126;-83
2024/01/18 11:26:18;;;;;;;3.97;0.40;;;2.80;99.90;;;;;;5114866;28;20043;-86
2024/01/18 11:28:44;;;;;;;11.13;0.70;;;0.60;99.90;;;;;;5113091;28;20500;-85
2024/01/18 11:31:10;;;;;;;4.10;0.60;;;1.50;99.90;;;;;;5114757;28;20054;-87
2024/01/18 11:33:37;;;;;;;2.67;0.40;;;1.70;99.90;;;;;;5096747;28;20440;-85
2024/01/18 11:36:03;;;;;;;4.22;0.43;;;1.70;99.90;;;;;;5114809;28;20047;-86
2024/01/18 11:38:31;;;;;;;3.95;0.40;;;1.90;99.90;;;;;;5121770;27;20058;-87
2024/01/18 11:40:58;;;;;;;4.20;0.30;;;2.60;99.90;;;;;;5094618;28;20040;-87
2024/01/18 11:44:01;;;;;;;1.27;0.30;;;1.10;99.90;;;;;;5094438;28;20036;-87
2024/01/18 11:46:41;;;;;;;1.85;0.20;;;1.90;99.90;;;;;;5092967;28;20044;-85
2024/01/18 11:49:07;;;;;;;1.25;0.30;;;1.90;99.90;;;;;;5102889;28;20373;-86
2024/01/18 11:51:35;;;;;;;1.50;0.20;;;2.00;99.90;;;;;;5114266;28;20119;-88
2024/01/18 11:54:01;;;;;;;1.92;0.20;;;2.80;99.90;;;;;;5113408;28;20050;-86
2024/01/18 11:56:28;;;;;;;3.75;0.30;;;2.00;99.90;;;;;;5114284;28;20054;-87
2024/01/18 11:58:57;;;;;;;1.67;0.40;;;3.40;99.90;;;;;;5112751;28;20032;-86
2024/01/18 12:01:24;;;;;;;4.57;0.57;;;3.30;99.90;;;;;;5111729;28;20126;-84
2024/01/18 12:03:50;;;;;;;1.60;0.40;;;2.80;99.90;;;;;;5131060;27;20070;-85
2024/01/18 12:06:17;;;;;;;4.07;0.50;;;3.00;99.90;;;;;;5127547;27;20038;-86
2024/01/18 12:08:44;;;;;;;3.08;0.52;;;2.00;99.90;;;;;;5112768;28;20112;-85
2024/01/18 12:11:10;;;;;;;1.05;0.30;;;2.40;99.90;;;;;;5127787;27;20055;-85
2024/01/18 12:13:37;;;;;;;2.63;0.50;;;2.70;99.90;;;;;;5112828;28;20047;-84
2024/01/18 12:16:04;;;;;;;1.65;0.63;;;2.30;99.90;;;;;;5112841;28;20058;-84
2024/01/18 12:18:43;;;;;;;1.35;0.50;;;2.40;99.90;;;;;;5112987;28;20125;-85
2024/01/18 12:21:09;;;;;;;3.15;0.57;;;2.30;99.90;;;;;;5112129;28;20047;-85
2024/01/18 12:23:35;;;;;;;3.92;0.70;;;2.30;99.90;;;;;;5113690;28;20048;-84
2024/01/18 12:26:03;;;;;;;6.50;0.60;;;3.20;99.90;;;;;;5112804;28;20039;-89
2024/01/18 12:28:28;;;;;;;2.53;0.60;;;2.40;99.90;;;;;;5113019;28;20052;-88
2024/01/18 12:31:00;;;;;;;1.65;0.60;;;3.80;99.90;;;;;;5095442;28;20039;-84
2024/01/18 12:33:29;;;;;;;3.45;0.50;;;3.20;99.90;;;;;;5112316;28;20043;-84
2024/01/18 12:35:56;;;;;;;1.88;0.68;;;3.60;99.90;;;;;;5118232;27;20123;-85
2024/01/18 12:38:22;;;;;;;2.60;0.60;;;1.80;99.90;;;;;;5112469;28;20044;-85
2024/01/18 12:40:48;;;;;;;5.18;0.80;;;2.30;99.90;;;;;;5111728;28;20054;-85
2024/01/18 12:43:14;;;;;;;2.88;0.60;;;3.20;99.90;;;;;;5113393;28;20126;-84
2024/01/18 12:45:42;;;;;;;2.70;0.60;;;1.70;99.90;;;;;;5113640;28;20108;-85
2024/01/18 12:48:09;;;;;;;3.83;0.60;;;2.90;99.90;;;;;;5111887;28;20454;-85
2024/01/18 12:50:36;;;;;;;2.75;0.60;;;3.40;99.90;;;;;;5112499;28;20391;-85